Time;durP1;ratioP1;P1;durP2;ratioP2;P2;SDS_P1;SDS_P2;PMS_P1;PMS_P2;Temp;Humidity;BMP_temperature;BMP_pressure;BME280_temperature;BME280_humidity;BME280_pressure;Samples;Min_cycle;Max_cycle;Signal;HPM_P1;HPM_P2
2021/10/25 00:02:20;;;;;;;8.98;4.57;;;;;;;-0.35;95.75;96089.22;5053661;28;20037;-80
2021/10/25 00:04:45;;;;;;;7.80;4.05;;;;;;;-0.27;95.48;96086.50;5051186;28;20044;-83
2021/10/25 00:07:11;;;;;;;8.25;4.28;;;;;;;-0.29;94.85;96083.28;5054905;28;20041;-82
2021/10/25 00:09:36;;;;;;;7.80;4.25;;;;;;;-0.26;95.44;96098.47;5056013;28;20047;-81
2021/10/25 00:12:02;;;;;;;9.65;4.40;;;;;;;-0.38;95.69;96097.34;5054595;28;20032;-82
2021/10/25 00:14:28;;;;;;;7.72;4.03;;;;;;;-0.42;96.11;96103.88;5054131;28;20490;-82
2021/10/25 00:16:54;;;;;;;8.63;4.32;;;;;;;-0.36;96.14;96103.13;5072599;28;20520;-81
2021/10/25 00:19:20;;;;;;;8.65;4.50;;;;;;;-0.42;95.64;96078.81;5057244;28;20037;-82
2021/10/25 00:21:46;;;;;;;11.68;4.22;;;;;;;-0.30;95.49;96102.41;5068378;28;20436;-81
2021/10/25 00:24:12;;;;;;;6.57;3.63;;;;;;;-0.35;95.36;96100.34;5072411;28;20044;-83
2021/10/25 00:26:37;;;;;;;7.22;3.78;;;;;;;-0.32;95.16;96104.34;5068025;28;20060;-83
2021/10/25 00:29:03;;;;;;;7.90;4.28;;;;;;;-0.35;95.02;96104.72;5071944;28;20068;-81
2021/10/25 00:31:29;;;;;;;8.80;3.88;;;;;;;-0.55;95.18;96095.03;5073712;28;20044;-80
2021/10/25 00:33:56;;;;;;;10.75;4.28;;;;;;;-0.63;95.24;96095.13;5071530;28;20044;-82
2021/10/25 00:36:22;;;;;;;7.50;3.92;;;;;;;-0.68;95.93;96097.47;5067682;28;20437;-81
2021/10/25 00:38:47;;;;;;;6.55;3.55;;;;;;;-0.70;96.62;96096.84;5073755;28;20040;-82
2021/10/25 00:41:14;;;;;;;7.65;3.95;;;;;;;-0.66;96.50;96087.75;5067426;28;20044;-82
2021/10/25 00:43:40;;;;;;;8.75;3.53;;;;;;;-0.55;95.70;96089.84;5060997;28;20066;-82
2021/10/25 00:46:10;;;;;;;11.60;4.40;;;;;;;-0.64;95.38;96090.94;5072016;28;20495;-81
2021/10/25 00:48:37;;;;;;;7.68;4.30;;;;;;;-0.64;95.03;96090.94;5070805;28;20045;-82
2021/10/25 00:51:06;;;;;;;8.13;3.83;;;;;;;-0.56;95.62;96097.78;5074539;28;20036;-82
2021/10/25 00:53:32;;;;;;;7.88;3.65;;;;;;;-0.58;94.86;96095.38;5093074;28;20083;-82
2021/10/25 00:56:00;;;;;;;8.80;3.88;;;;;;;-0.70;95.17;96091.69;5056528;28;20041;-80
2021/10/25 00:58:25;;;;;;;8.30;3.90;;;;;;;-0.74;95.66;96080.13;5051364;28;20495;-79
2021/10/25 01:00:51;;;;;;;7.97;4.05;;;;;;;-0.77;95.27;96085.66;5069907;28;20119;-81
2021/10/25 01:03:17;;;;;;;6.75;3.90;;;;;;;-0.77;95.49;96085.66;5049649;28;20044;-80
2021/10/25 01:05:43;;;;;;;9.00;4.18;;;;;;;-0.76;95.82;96084.66;5032725;28;20040;-81
2021/10/25 01:08:09;;;;;;;7.13;3.67;;;;;;;-0.80;96.42;96097.16;5065298;28;20045;-81
2021/10/25 01:10:36;;;;;;;10.30;4.10;;;;;;;-0.79;95.98;96093.59;5066683;28;20040;-81
2021/10/25 01:13:02;;;;;;;9.73;4.07;;;;;;;-0.89;95.73;96088.72;5052112;28;20060;-81
2021/10/25 01:15:28;;;;;;;7.63;3.53;;;;;;;-0.93;95.82;96087.47;5053260;28;20127;-83
2021/10/25 01:17:55;;;;;;;6.60;3.50;;;;;;;-0.88;95.84;96084.34;5064396;28;20047;-80
2021/10/25 01:20:22;;;;;;;7.80;3.72;;;;;;;-0.80;95.43;96086.03;5071418;28;20494;-82
2021/10/25 01:22:49;;;;;;;8.52;3.97;;;;;;;-0.80;95.50;96086.03;5071184;28;20047;-81
2021/10/25 01:25:15;;;;;;;10.25;4.07;;;;;;;-1.00;95.92;96071.09;5076233;28;20200;-82
2021/10/25 01:27:40;;;;;;;9.65;3.90;;;;;;;-0.93;95.38;96082.31;5054863;28;20060;-80
2021/10/25 01:30:06;;;;;;;13.15;3.90;;;;;;;-0.96;95.72;96082.69;5070024;28;20040;-80
2021/10/25 01:32:32;;;;;;;10.05;3.78;;;;;;;-0.94;95.52;96075.53;5075224;28;20037;-80
2021/10/25 01:34:58;;;;;;;8.07;3.50;;;;;;;-0.90;95.33;96075.97;5075549;28;20037;-81
2021/10/25 01:37:24;;;;;;;6.75;3.53;;;;;;;-0.90;94.76;96081.94;5074173;28;20072;-81
2021/10/25 01:39:50;;;;;;;9.20;3.97;;;;;;;-1.01;94.92;96068.69;5073907;28;20091;-83
2021/10/25 01:42:16;;;;;;;5.93;3.30;;;;;;;-1.04;95.02;96067.28;5075034;28;20051;-81
2021/10/25 01:44:42;;;;;;;9.15;3.63;;;;;;;-1.08;95.34;96076.38;5075040;28;20045;-82
2021/10/25 01:47:08;;;;;;;6.57;3.70;;;;;;;-1.10;95.76;96066.22;5074439;28;20036;-81
2021/10/25 01:49:33;;;;;;;10.75;3.20;;;;;;;-1.10;95.83;96065.44;5073736;28;20041;-81
2021/10/25 01:52:00;;;;;;;7.45;3.92;;;;;;;-1.21;96.08;96058.94;5074476;28;20144;-82
2021/10/25 01:54:26;;;;;;;8.02;4.00;;;;;;;-1.06;96.89;96066.66;5074990;28;20110;-82
2021/10/25 01:56:52;;;;;;;7.95;4.13;;;;;;;-0.96;95.88;96062.00;5074757;28;20040;-81
2021/10/25 01:59:17;;;;;;;6.60;3.53;;;;;;;-1.05;95.66;96065.66;5067797;28;20037;-82
2021/10/25 02:01:44;;;;;;;7.82;3.50;;;;;;;-1.10;95.93;96058.47;5074723;28;20040;-82
2021/10/25 02:04:10;;;;;;;7.75;3.50;;;;;;;-0.95;96.07;96058.44;5075232;28;20044;-82
2021/10/25 02:06:35;;;;;;;9.60;4.00;;;;;;;-1.11;96.05;96056.06;5054881;28;20075;-81
2021/10/25 02:09:01;;;;;;;7.68;3.70;;;;;;;-0.96;96.23;96046.50;5074541;28;20044;-81
2021/10/25 02:11:27;;;;;;;7.90;3.97;;;;;;;-0.96;95.74;96045.69;5057097;28;20040;-82
2021/10/25 02:13:52;;;;;;;7.28;3.88;;;;;;;-0.90;95.08;96045.75;5073377;28;20051;-81
2021/10/25 02:16:18;;;;;;;7.95;3.70;;;;;;;-0.90;95.41;96050.94;5075086;28;20052;-81
2021/10/25 02:18:44;;;;;;;9.55;3.70;;;;;;;-1.01;95.17;96054.00;5068282;28;20047;-82
2021/10/25 02:21:10;;;;;;;8.68;3.70;;;;;;;-1.01;95.57;96048.81;5052460;28;20044;-81
2021/10/25 02:23:36;;;;;;;6.68;3.63;;;;;;;-1.02;95.71;96036.91;5073776;28;20055;-83
2021/10/25 02:26:02;;;;;;;8.02;3.90;;;;;;;-0.91;95.92;96038.97;5073798;28;20041;-81
2021/10/25 02:28:27;;;;;;;6.85;3.72;;;;;;;-0.84;94.97;96033.09;5074319;28;20811;-80
2021/10/25 02:30:54;;;;;;;7.72;3.72;;;;;;;-0.83;94.72;96039.84;5074997;28;20067;-80
2021/10/25 02:33:21;;;;;;;8.63;3.95;;;;;;;-0.70;94.49;96050.34;5073931;28;20068;-80
2021/10/25 02:35:47;;;;;;;7.60;3.90;;;;;;;-0.83;94.98;96052.78;5072079;28;20079;-82
2021/10/25 02:38:13;;;;;;;7.88;3.85;;;;;;;-1.06;95.52;96053.75;5056046;28;20045;-81
2021/10/25 02:40:38;;;;;;;8.23;4.05;;;;;;;-1.03;96.43;96049.97;5070700;28;20551;-83
2021/10/25 02:43:05;;;;;;;8.07;4.22;;;;;;;-1.06;96.64;96040.84;5054774;28;20616;-81
2021/10/25 02:45:31;;;;;;;7.32;3.65;;;;;;;-1.04;96.24;96054.34;5077146;28;20489;-81
2021/10/25 02:47:56;;;;;;;8.25;3.83;;;;;;;-0.93;96.05;96046.13;5071457;28;20048;-82
2021/10/25 02:50:22;;;;;;;9.43;3.85;;;;;;;-0.98;96.68;96053.63;5074461;28;20037;-81
2021/10/25 02:52:48;;;;;;;11.32;4.10;;;;;;;-1.20;97.74;96049.44;5055613;28;20046;-84
2021/10/25 02:55:14;;;;;;;9.25;3.85;;;;;;;-1.38;99.22;96042.84;5074319;28;20568;-83
2021/10/25 02:57:42;;;;;;;7.22;3.65;;;;;;;-1.13;97.64;96055.47;5075925;28;20048;-82
2021/10/25 03:00:10;;;;;;;8.30;3.88;;;;;;;-1.15;96.59;96041.91;5055903;28;20041;-84
2021/10/25 03:02:36;;;;;;;8.23;4.05;;;;;;;-1.23;98.06;96051.38;5069595;28;20044;-81
2021/10/25 03:05:03;;;;;;;6.38;3.33;;;;;;;-1.12;97.50;96050.13;5070871;28;20473;-81
2021/10/25 03:07:29;;;;;;;8.93;4.07;;;;;;;-1.06;96.74;96056.34;5052053;28;20045;-81
2021/10/25 03:09:54;;;;;;;8.43;3.85;;;;;;;-0.95;97.00;96048.13;5053743;28;20036;-80
2021/10/25 03:12:20;;;;;;;7.53;3.75;;;;;;;-0.88;96.52;96048.97;5053439;28;20768;-82
2021/10/25 03:14:46;;;;;;;6.80;3.28;;;;;;;-0.90;95.93;96050.94;5074454;28;20040;-83
2021/10/25 03:17:12;;;;;;;7.30;3.95;;;;;;;-1.03;96.67;96045.63;5073735;28;20421;-82
2021/10/25 03:19:38;;;;;;;8.98;4.05;;;;;;;-1.02;96.96;96047.25;5063928;28;20048;-82
2021/10/25 03:22:06;;;;;;;8.15;3.72;;;;;;;-0.95;96.51;96048.13;5067208;28;20055;-82
2021/10/25 03:24:34;;;;;;;8.13;3.80;;;;;;;-0.82;95.45;96050.03;5073023;28;20506;-82
2021/10/25 03:27:00;;;;;;;8.07;3.90;;;;;;;-0.81;95.91;96056.00;5069938;28;20052;-83
2021/10/25 03:29:26;;;;;;;8.77;4.13;;;;;;;-0.92;95.44;96063.25;5055274;28;20075;-82
2021/10/25 03:31:51;;;;;;;7.90;3.53;;;;;;;-1.05;96.84;96063.09;5073581;28;20040;-83
2021/10/25 03:34:18;;;;;;;8.10;3.70;;;;;;;-1.12;96.28;96062.22;5054368;28;20625;-83
2021/10/25 03:36:46;;;;;;;8.20;3.88;;;;;;;-1.14;96.97;96059.81;5066937;28;20044;-83
2021/10/25 03:39:13;;;;;;;6.70;3.53;;;;;;;-1.09;96.32;96056.69;5053991;28;20494;-81
2021/10/25 03:41:42;;;;;;;7.85;3.47;;;;;;;-1.04;95.95;96059.53;5065025;28;20068;-83
2021/10/25 03:44:15;;;;;;;7.30;3.63;;;;;;;-1.05;95.63;96057.91;5067029;28;20577;-82
2021/10/25 03:46:56;;;;;;;7.32;3.67;;;;;;;-1.08;95.91;96047.94;5055253;28;20105;-82
2021/10/25 03:52:35;;;;;;;9.55;4.20;;;;;;;-1.13;96.35;96056.25;5045932;28;20406;-82
2021/10/25 04:29:35;;;;;;;6.57;3.72;;;;;;;-1.08;96.23;96027.28;5031952;28;20080;-82
2021/10/25 04:32:06;;;;;;;10.70;3.95;;;;;;;-1.19;96.60;96030.34;5054669;28;20048;-79
2021/10/25 04:34:35;;;;;;;8.32;3.83;;;;;;;-1.23;96.07;96028.13;5072034;28;20086;-82
2021/10/25 04:37:00;;;;;;;7.97;3.72;;;;;;;-1.08;96.23;96038.44;5071264;28;20056;-81
2021/10/25 04:39:26;;;;;;;8.75;3.92;;;;;;;-1.03;96.26;96040.47;5070793;28;20044;-80
2021/10/25 04:41:51;;;;;;;8.30;3.65;;;;;;;-1.08;96.04;96035.03;5068442;28;20067;-82
2021/10/25 04:44:18;;;;;;;9.65;4.50;;;;;;;-1.08;96.18;96027.28;5072270;28;20048;-82
2021/10/25 04:46:43;;;;;;;6.45;3.63;;;;;;;-1.17;96.66;96028.41;5054604;28;20076;-82
2021/10/25 04:49:09;;;;;;;8.00;3.97;;;;;;;-1.15;96.08;96029.00;5046306;28;20094;-81
2021/10/25 04:51:34;;;;;;;8.85;3.88;;;;;;;-1.18;95.66;96037.91;5069666;28;20403;-81
2021/10/25 04:54:02;;;;;;;7.30;3.50;;;;;;;-1.28;96.29;96038.22;5070852;28;20614;-82
2021/10/25 04:56:28;;;;;;;9.10;3.80;;;;;;;-1.18;96.85;96026.78;5067326;28;20112;-83
2021/10/25 04:58:54;;;;;;;6.85;3.70;;;;;;;-1.16;96.39;96024.84;5071396;28;20056;-81
2021/10/25 05:01:19;;;;;;;7.63;3.55;;;;;;;-1.31;96.87;96028.22;5075579;28;20412;-82
2021/10/25 05:03:45;;;;;;;8.20;3.72;;;;;;;-1.31;96.94;96017.91;5072690;28;20144;-81
2021/10/25 05:06:17;;;;;;;7.80;3.42;;;;;;;-1.41;96.92;96022.56;5054494;28;20040;-81
2021/10/25 05:08:44;;;;;;;7.20;3.70;;;;;;;-1.44;97.20;96028.09;5076815;28;20041;-83
2021/10/25 05:11:10;;;;;;;8.15;3.85;;;;;;;-1.43;97.10;96029.69;5054122;28;20045;-83
2021/10/25 05:13:35;;;;;;;8.50;3.70;;;;;;;-1.43;97.67;96029.69;5071857;28;20044;-82
2021/10/25 05:16:01;;;;;;;9.40;3.72;;;;;;;-1.26;97.11;96020.75;5075897;28;20515;-81
2021/10/25 05:18:26;;;;;;;6.80;3.65;;;;;;;-1.33;97.21;96022.47;5072702;28;20048;-83
2021/10/25 05:20:52;;;;;;;9.57;3.80;;;;;;;-1.33;96.62;96025.03;5058683;28;20474;-81
2021/10/25 05:23:18;;;;;;;7.32;3.50;;;;;;;-1.40;96.84;96024.16;5075544;28;20395;-81
2021/10/25 05:25:44;;;;;;;7.75;3.75;;;;;;;-1.40;97.25;96034.50;5050387;28;20113;-80
2021/10/25 05:28:10;;;;;;;8.10;3.55;;;;;;;-1.24;97.13;96017.97;5056707;28;20033;-81
2021/10/25 05:30:35;;;;;;;8.80;3.72;;;;;;;-1.18;96.87;96016.47;5074572;28;20033;-81
2021/10/25 05:33:01;;;;;;;7.80;3.53;;;;;;;-1.23;97.28;96025.53;5075286;28;20164;-81
2021/10/25 05:35:27;;;;;;;14.10;4.00;;;;;;;-1.25;96.92;96016.38;5054835;28;20458;-82
2021/10/25 05:37:53;;;;;;;12.07;4.15;;;;;;;-1.26;96.65;96015.59;5086534;28;20117;-82
2021/10/25 05:40:19;;;;;;;9.02;4.07;;;;;;;-1.22;96.43;96022.00;5056500;28;20448;-82
2021/10/25 05:42:45;;;;;;;9.60;3.90;;;;;;;-1.25;96.64;96012.03;5073303;28;20047;-81
2021/10/25 05:45:10;;;;;;;7.30;3.30;;;;;;;-1.27;97.13;96024.31;5075392;28;20105;-82
2021/10/25 05:47:36;;;;;;;9.68;4.30;;;;;;;-1.13;97.60;96019.31;5074592;28;20040;-80
2021/10/25 05:50:02;;;;;;;6.43;3.60;;;;;;;-1.01;96.72;96012.66;5074569;28;20041;-82
2021/10/25 05:52:29;;;;;;;10.02;3.88;;;;;;;-1.03;95.70;96009.47;5056182;28;20067;-81
2021/10/25 05:54:54;;;;;;;10.25;3.55;;;;;;;-1.12;96.04;96015.72;5074515;28;20115;-81
2021/10/25 05:57:21;;;;;;;11.77;4.03;;;;;;;-1.06;96.17;96009.84;5055993;28;20044;-81
2021/10/25 05:59:48;;;;;;;8.18;3.55;;;;;;;-1.00;96.00;96011.69;5066409;28;20072;-81
2021/10/25 06:04:46;;;;;;;8.07;3.50;;;;;;;-1.05;96.41;96017.41;5074174;28;20051;-82
2021/10/25 06:07:11;;;;;;;7.05;3.35;;;;;;;-1.12;97.00;96015.72;5074122;28;20044;-82
2021/10/25 06:09:37;;;;;;;11.10;3.42;;;;;;;-1.12;97.20;96020.88;5070773;28;20041;-82
2021/10/25 06:12:08;;;;;;;7.55;3.60;;;;;;;-1.06;97.15;96031.28;5058810;28;20375;-81
2021/10/25 06:14:40;;;;;;;7.80;3.67;;;;;;;-1.12;97.96;96020.88;5084570;28;20066;-82
2021/10/25 06:19:49;;;;;;;7.25;3.70;;;;;;;-0.79;97.80;96026.41;5071302;28;22158;-81
2021/10/25 06:22:18;;;;;;;12.45;4.15;;;;;;;-0.55;96.92;96032.16;5055262;28;20067;-82
2021/10/25 06:24:46;;;;;;;9.95;4.20;;;;;;;-0.50;96.84;96023.84;5075084;28;20120;-82
2021/10/25 06:27:11;;;;;;;6.90;3.55;;;;;;;-0.45;97.99;96031.84;5075163;28;20040;-82
2021/10/25 06:29:37;;;;;;;9.90;4.88;;;;;;;-0.53;97.58;96023.25;5074154;28;20037;-82
2021/10/25 06:32:03;;;;;;;8.23;4.00;;;;;;;-0.63;97.85;96038.25;5055564;28;20105;-81
2021/10/25 06:34:36;;;;;;;13.77;5.50;;;;;;;-0.59;98.03;96030.94;5072030;28;20713;-81
2021/10/25 06:37:03;;;;;;;19.70;8.15;;;;;;;-0.64;98.87;96028.91;5072699;28;20040;-80
2021/10/25 06:40:11;;;;;;;26.05;8.07;;;;;;;-0.60;98.44;96030.13;5070506;28;20051;-80
2021/10/25 06:42:18;;;;;;;15.52;5.80;;;;;;;-0.39;97.29;96031.09;5064904;28;20056;-80
2021/10/25 06:44:57;;;;;;;13.80;5.07;;;;;;;-0.43;97.84;96024.69;5070614;28;20495;-82
2021/10/25 06:47:23;;;;;;;12.02;4.55;;;;;;;-0.44;97.96;96028.28;5061017;28;20052;-83
2021/10/25 06:49:49;;;;;;;7.65;3.95;;;;;;;-0.26;97.13;96036.38;5070425;28;20041;-83
2021/10/25 06:52:15;;;;;;;13.68;4.97;;;;;;;-0.13;97.40;96034.84;5070224;28;20547;-79
2021/10/25 06:54:41;;;;;;;11.68;4.30;;;;;;;-0.18;97.80;96038.03;5069674;28;20040;-80
2021/10/25 06:57:07;;;;;;;8.95;4.28;;;;;;;-0.16;98.43;96040.41;5068556;28;20036;-80
2021/10/25 06:59:32;;;;;;;10.90;3.78;;;;;;;-0.16;99.03;96035.25;5072764;28;20040;-81
2021/10/25 07:01:58;;;;;;;9.32;4.00;;;;;;;-0.08;98.80;96032.53;5061330;28;20061;-80
2021/10/25 07:04:24;;;;;;;9.00;3.92;;;;;;;0.28;97.75;96037.50;5072431;28;20672;-81
2021/10/25 07:06:52;;;;;;;8.55;4.07;;;;;;;0.50;97.22;96046.00;5068124;28;20040;-84
2021/10/25 07:09:18;;;;;;;10.32;4.53;;;;;;;0.29;96.75;96027.97;5066640;28;20043;-79
2021/10/25 07:11:45;;;;;;;10.70;4.32;;;;;;;0.41;97.42;96051.53;5065958;28;20040;-79
2021/10/25 07:14:12;;;;;;;8.82;4.03;;;;;;;0.58;97.57;96052.00;5064771;28;20055;-81
2021/10/25 07:16:46;;;;;;;12.23;4.38;;;;;;;0.60;97.27;96050.00;5073332;28;20040;-81
2021/10/25 07:19:40;;;;;;;9.50;4.03;;;;;;;0.69;97.34;96059.22;5054462;28;20032;-80
2021/10/25 08:03:33;;;;;;;5.85;2.80;;;;;;;2.89;94.33;96048.00;5069976;28;20458;-81
2021/10/25 08:08:33;;;;;;;6.25;2.95;;;;;;;3.47;92.43;96048.88;5070703;28;20395;-79
2021/10/25 08:11:06;;;;;;;7.53;2.63;;;;;;;3.79;91.67;96041.03;5052948;28;20040;-80
2021/10/25 08:13:40;;;;;;;6.73;2.90;;;;;;;3.77;91.71;96048.25;5071738;28;20040;-82
2021/10/25 08:16:12;;;;;;;4.65;2.63;;;;;;;3.72;93.36;96050.69;5070944;28;20151;-81
2021/10/25 08:18:53;;;;;;;8.10;2.72;;;;;;;3.93;93.16;96047.72;5069305;28;20053;-81
2021/10/25 08:21:20;;;;;;;9.50;2.85;;;;;;;4.03;93.02;96046.44;5065444;28;20059;-80
2021/10/25 08:23:48;;;;;;;5.88;2.67;;;;;;;4.26;91.22;96057.03;5071390;28;20045;-81
2021/10/25 08:26:14;;;;;;;6.63;3.15;;;;;;;4.22;92.98;96053.25;5053883;28;20044;-79
2021/10/25 08:28:39;;;;;;;8.95;3.45;;;;;;;4.30;90.93;96042.56;5052378;28;20608;-81
2021/10/25 08:31:08;;;;;;;10.23;3.30;;;;;;;4.39;91.95;96050.09;5076127;28;20047;-81
2021/10/25 08:39:46;;;;;;;8.07;3.33;;;;;;;4.58;91.93;96054.28;5078156;28;20089;-81
2021/10/25 08:41:42;;;;;;;11.30;3.78;;;;;;;4.65;93.04;96049.81;5061606;28;20036;-83
2021/10/25 08:44:09;;;;;;;6.93;2.97;;;;;;;4.81;92.53;96047.63;5079225;28;20044;-81
2021/10/25 08:46:35;;;;;;;4.47;2.30;;;;;;;4.90;90.68;96041.09;5062077;28;20081;-82
2021/10/25 08:49:01;;;;;;;4.85;2.63;;;;;;;5.18;89.78;96047.56;5044438;28;20049;-81
2021/10/25 08:51:26;;;;;;;7.28;3.25;;;;;;;5.44;87.08;96035.16;5078521;28;20408;-81
2021/10/25 08:53:53;;;;;;;6.63;2.83;;;;;;;5.38;89.13;96040.25;5074893;28;20090;-81
2021/10/25 08:56:19;;;;;;;5.65;2.60;;;;;;;5.38;90.23;96048.06;5075066;28;20040;-80
2021/10/25 08:58:48;;;;;;;4.82;2.63;;;;;;;5.44;89.89;96035.16;5074843;28;20056;-81
2021/10/25 09:01:28;;;;;;;5.00;3.00;;;;;;;5.55;89.72;96037.00;5075326;28;20040;-79
2021/10/25 09:04:11;;;;;;;5.32;2.70;;;;;;;5.69;89.18;96053.28;5074966;28;20037;-78
2021/10/25 09:06:48;;;;;;;5.32;2.67;;;;;;;5.80;89.61;96038.63;5056070;28;20527;-80
2021/10/25 09:09:14;;;;;;;5.25;2.63;;;;;;;5.88;88.69;96043.53;5067514;28;20036;-80
2021/10/25 09:12:02;;;;;;;5.72;3.15;;;;;;;6.10;86.05;96037.78;5058784;28;20052;-78
2021/10/25 09:14:29;;;;;;;6.10;3.20;;;;;;;6.22;88.34;96039.38;5058335;28;20051;-83
2021/10/25 09:17:03;;;;;;;7.72;3.72;;;;;;;6.29;82.88;96036.63;5060121;28;20253;-80
2021/10/25 09:19:30;;;;;;;6.90;3.58;;;;;;;6.53;85.73;96036.59;5075813;28;20513;-84
2021/10/25 09:22:05;;;;;;;10.73;3.50;;;;;;;6.81;84.80;96029.81;5074743;28;20052;-82
2021/10/25 09:24:32;;;;;;;7.13;3.92;;;;;;;7.18;80.47;96032.06;5074765;28;20040;-81
2021/10/25 09:27:04;;;;;;;7.13;3.47;;;;;;;7.15;83.73;96037.78;5066836;28;20115;-81
2021/10/25 09:29:33;;;;;;;7.68;4.07;;;;;;;7.17;84.95;96035.72;5074245;28;20036;-82
2021/10/25 09:32:12;;;;;;;9.82;3.92;;;;;;;7.29;84.74;96039.88;5058147;28;20041;-81
2021/10/25 09:34:50;;;;;;;7.68;3.67;;;;;;;7.46;82.01;96039.91;5074512;28;20098;-83
2021/10/25 09:37:21;;;;;;;7.70;3.47;;;;;;;7.63;81.64;96039.16;5064111;28;20041;-80
2021/10/25 09:39:52;;;;;;;5.93;3.25;;;;;;;7.77;80.94;96040.44;5055184;28;20059;-85
2021/10/25 09:50:41;;;;;;;5.82;2.70;;;;;;;8.11;82.03;96029.13;5065830;28;20104;-80
2021/10/25 09:53:08;;;;;;;7.72;2.85;;;;;;;8.53;77.72;96035.75;5072425;28;20055;-81
2021/10/25 09:55:43;;;;;;;6.47;2.70;;;;;;;8.78;73.43;96017.69;5071685;28;20052;-81
2021/10/25 09:58:20;;;;;;;6.20;2.70;;;;;;;8.91;75.01;96021.00;5071629;28;20037;-82
2021/10/25 10:00:46;;;;;;;4.22;2.50;;;;;;;9.20;69.99;96018.91;5051557;28;20036;-82
2021/10/25 10:03:13;;;;;;;4.78;2.50;;;;;;;9.60;64.96;96016.94;5055754;28;20102;-83
2021/10/25 10:05:43;;;;;;;6.70;2.60;;;;;;;9.91;65.58;96017.94;5075262;28;20064;-82
2021/10/25 10:08:12;;;;;;;8.43;2.70;;;;;;;10.12;64.73;96016.25;5071659;28;20068;-85
2021/10/25 10:10:41;;;;;;;4.50;2.45;;;;;;;10.01;65.44;96017.22;5068785;28;20145;-83
2021/10/25 10:13:12;;;;;;;5.97;2.70;;;;;;;10.22;64.53;96011.03;5071843;28;20501;-81
2021/10/25 10:15:40;;;;;;;7.28;3.10;;;;;;;10.00;67.99;96005.91;5073275;28;20433;-81
2021/10/25 10:18:30;;;;;;;6.05;2.40;;;;;;;10.04;69.19;96011.44;5053556;28;20036;-80
2021/10/25 10:21:00;;;;;;;4.38;2.63;;;;;;;9.71;74.02;96008.06;5072853;28;20070;-80
2021/10/25 10:23:26;;;;;;;8.77;2.85;;;;;;;10.06;73.29;96004.13;5057548;28;20055;-80
2021/10/25 10:25:53;;;;;;;10.38;3.42;;;;;;;9.71;69.18;96008.06;5072454;28;20045;-81
2021/10/25 10:28:35;;;;;;;13.27;3.50;;;;;;;9.57;72.57;95996.38;5069951;28;20068;-79
2021/10/25 10:31:20;;;;;;;7.22;3.55;;;;;;;9.48;70.65;95999.50;5071105;28;20052;-80
2021/10/25 10:33:51;;;;;;;8.98;3.70;;;;;;;9.56;68.00;95992.19;5052622;28;20112;-81
2021/10/25 10:36:24;;;;;;;8.07;4.05;;;;;;;10.14;67.49;95985.25;5052461;28;20037;-81
2021/10/25 10:39:10;;;;;;;11.10;3.97;;;;;;;10.49;68.00;95991.75;5050764;28;20037;-81
2021/10/25 10:41:40;;;;;;;8.45;3.90;;;;;;;10.35;65.34;95985.38;5067747;28;20048;-80
2021/10/25 10:44:14;;;;;;;10.10;4.20;;;;;;;10.36;65.23;95986.97;5072282;28;20052;-81
2021/10/25 10:46:49;;;;;;;9.45;4.85;;;;;;;10.38;65.84;95987.47;5053371;28;20041;-80
2021/10/25 10:49:23;;;;;;;11.98;4.80;;;;;;;10.96;64.74;95989.28;5068132;28;20040;-80
2021/10/25 10:55:07;;;;;;;9.45;5.45;;;;;;;10.92;64.50;95979.25;5070531;28;20041;-83
2021/10/25 11:00:33;;;;;;;9.90;5.55;;;;;;;10.63;61.27;95980.75;5040654;28;20061;-79
2021/10/25 11:03:12;;;;;;;10.90;5.90;;;;;;;10.79;61.49;95977.13;5076331;28;20043;-82
2021/10/25 11:05:43;;;;;;;12.68;5.43;;;;;;;11.44;62.78;95979.34;5065926;28;20041;-84
2021/10/25 11:08:09;;;;;;;12.45;5.68;;;;;;;11.78;63.02;95969.06;5039183;28;20037;-84
2021/10/25 11:10:40;;;;;;;9.85;5.35;;;;;;;11.15;62.07;95969.31;5063355;28;20052;-82
2021/10/25 11:13:21;;;;;;;13.40;6.78;;;;;;;12.27;59.49;95975.59;5074813;28;20055;-83
2021/10/25 11:16:14;;;;;;;17.65;6.43;;;;;;;12.04;59.56;95960.34;5075064;28;20041;-80
2021/10/25 11:18:47;;;;;;;19.85;6.20;;;;;;;12.46;56.98;95969.75;5069978;28;20509;-78
2021/10/25 11:21:13;;;;;;;13.32;6.10;;;;;;;12.47;57.12;95958.13;5069027;28;20036;-79
2021/10/25 11:23:57;;;;;;;14.35;5.97;;;;;;;12.80;56.06;95955.84;5059562;28;20047;-79
2021/10/25 11:26:38;;;;;;;22.48;5.95;;;;;;;13.19;55.83;95947.19;5064111;28;20033;-80
2021/10/25 11:29:12;;;;;;;14.57;6.03;;;;;;;12.55;56.57;95954.13;5067952;28;20052;-80
2021/10/25 11:31:39;;;;;;;;;;;;;;;12.48;59.73;95951.75;5070698;28;20036;-80
2021/10/25 11:34:19;;;;;;;11.50;5.85;;;;;;;12.07;60.44;95938.72;5070250;28;20031;-78
2021/10/25 11:36:51;;;;;;;12.23;5.53;;;;;;;11.59;60.64;95949.56;5066921;28;20041;-79
2021/10/25 11:39:25;;;;;;;12.70;5.40;;;;;;;11.81;60.39;95930.03;5070491;28;20063;-80
2021/10/25 11:41:50;;;;;;;14.93;5.55;;;;;;;11.85;59.81;95931.88;5037976;28;20045;-80
2021/10/25 11:44:16;;;;;;;13.43;5.75;;;;;;;11.93;62.35;95944.53;5070918;28;20098;-80
2021/10/25 11:46:43;;;;;;;12.20;6.07;;;;;;;12.53;57.26;95946.47;5069565;28;20044;-78
2021/10/25 11:49:10;;;;;;;12.90;6.03;;;;;;;12.71;55.19;95941.63;5062506;28;20040;-80
2021/10/25 11:51:49;;;;;;;12.90;6.10;;;;;;;12.46;57.00;95935.41;5070249;28;20044;-80
2021/10/25 11:54:14;;;;;;;14.25;6.07;;;;;;;12.60;56.05;95946.97;5070832;28;20044;-80
2021/10/25 11:56:48;;;;;;;11.85;6.30;;;;;;;12.52;55.30;95934.34;5070004;28;20051;-79
2021/10/25 11:59:14;;;;;;;14.18;6.07;;;;;;;11.63;60.08;95934.00;5068263;28;20071;-81
2021/10/25 12:01:41;;;;;;;13.95;5.80;;;;;;;11.63;60.84;95941.94;5071861;28;20032;-80
2021/10/25 12:04:07;;;;;;;12.65;5.55;;;;;;;12.06;58.16;95937.13;5079787;28;20048;-80
2021/10/25 12:06:34;;;;;;;10.30;5.57;;;;;;;12.09;57.09;95926.03;5059493;28;20036;-79
2021/10/25 12:09:08;;;;;;;16.70;6.30;;;;;;;11.40;62.18;95922.94;5070256;28;20044;-79
2021/10/25 12:11:55;;;;;;;12.18;5.30;;;;;;;11.14;61.98;95917.66;5070778;28;20040;-83
2021/10/25 12:14:29;;;;;;;14.25;5.43;;;;;;;11.13;61.78;95921.34;5075004;28;20051;-82
2021/10/25 12:16:55;;;;;;;11.38;5.32;;;;;;;10.75;64.85;95915.50;5093924;28;20032;-82
2021/10/25 12:19:22;;;;;;;13.32;5.40;;;;;;;10.57;63.53;95920.22;5058254;28;20045;-81
2021/10/25 12:21:48;;;;;;;9.30;5.20;;;;;;;11.00;63.02;95921.88;5069161;28;20055;-80
2021/10/25 12:24:14;;;;;;;15.70;4.95;;;;;;;11.24;62.04;95912.41;5068200;28;20136;-80
2021/10/25 12:26:41;;;;;;;10.40;4.90;;;;;;;11.03;66.58;95916.06;5067200;28;20051;-80
2021/10/25 12:29:18;;;;;;;10.27;5.13;;;;;;;11.49;60.11;95913.44;5065702;28;20086;-79
2021/10/25 12:31:47;;;;;;;11.38;5.18;;;;;;;11.45;59.17;95899.25;5068934;28;20060;-79
2021/10/25 12:34:14;;;;;;;14.68;5.85;;;;;;;11.52;58.30;95897.13;5069229;28;20048;-80
2021/10/25 12:36:43;;;;;;;11.02;4.97;;;;;;;11.27;59.47;95896.06;5065252;28;20029;-80
2021/10/25 12:39:12;;;;;;;11.30;5.03;;;;;;;11.31;58.87;95900.84;5069636;28;20037;-79
2021/10/25 12:41:55;;;;;;;12.65;5.47;;;;;;;11.33;58.86;95911.88;5068694;28;20045;-79
2021/10/25 12:44:36;;;;;;;12.20;4.90;;;;;;;11.27;59.26;95911.88;5068755;28;20037;-79
2021/10/25 12:47:15;;;;;;;16.80;5.13;;;;;;;11.31;60.14;95911.38;5070570;28;20113;-80
2021/10/25 12:49:53;;;;;;;9.00;4.97;;;;;;;11.21;60.30;95896.34;5066670;28;20410;-78
2021/10/25 12:52:19;;;;;;;10.52;5.00;;;;;;;11.12;60.26;95898.72;5058261;28;20041;-78
2021/10/25 12:54:46;;;;;;;10.05;4.75;;;;;;;11.08;60.89;95902.94;5058544;28;20040;-78
2021/10/25 12:57:15;;;;;;;11.13;4.60;;;;;;;11.31;60.40;95896.34;5067565;28;20040;-78
2021/10/25 12:59:42;;;;;;;11.27;4.70;;;;;;;11.25;59.43;95898.19;5062677;28;20056;-79
2021/10/25 13:02:09;;;;;;;9.80;4.70;;;;;;;11.29;58.56;95895.03;5070727;28;20502;-77
2021/10/25 13:04:35;;;;;;;10.02;4.53;;;;;;;10.99;61.83;95900.03;5068635;28;20040;-80
2021/10/25 13:07:14;;;;;;;13.02;4.72;;;;;;;11.14;60.32;95907.13;5067781;28;20137;-78
2021/10/25 13:09:53;;;;;;;12.15;4.97;;;;;;;11.03;60.56;95897.63;5049359;28;20044;-78
2021/10/25 13:12:20;;;;;;;10.55;4.63;;;;;;;10.94;64.15;95896.59;5040422;28;20045;-78
2021/10/25 13:14:45;;;;;;;10.60;4.35;;;;;;;10.76;65.76;95893.41;5067772;28;20037;-78
2021/10/25 13:17:11;;;;;;;8.32;4.25;;;;;;;10.69;66.47;95879.72;5069741;28;20041;-79
2021/10/25 13:19:37;;;;;;;7.53;4.30;;;;;;;10.62;69.59;95879.94;5066630;28;20028;-79
2021/10/25 13:22:04;;;;;;;12.50;4.78;;;;;;;10.96;65.15;95889.22;5071897;28;20036;-79
2021/10/25 13:24:29;;;;;;;16.33;5.38;;;;;;;11.00;64.22;95890.28;5072895;28;20583;-78
2021/10/25 13:26:55;;;;;;;9.95;4.80;;;;;;;10.85;67.68;95889.19;5071328;28;20248;-79